DATOS DEL TIEMPO

AYER
Time Temp. Dewp. Hum. Bar.
00:07 15.5 11.9 79 1012.4
00:16 15.4 11.8 79 1012.4
00:26 15.3 11.7 79 1012.4
00:37 15.2 11.6 79 1012.4
00:47 15.1 11.5 79 1012.4
00:57 15 11.4 79 1012.3
01:05 14.9 11.3 79 1012.3
01:17 14.8 11.2 79 1012.2
01:27 14.7 11.3 80 1012.2
01:37 14.6 11.2 80 1012.2
01:47 14.5 11.1 80 1012.2
01:57 14.3 10.9 80 1012.1
02:06 14.3 10.9 80 1012.2
02:17 14.1 10.7 80 1012.1
02:28 14 10.8 81 1012.1
02:38 13.9 10.7 81 1012
02:47 13.9 10.7 81 1012
02:58 13.8 10.6 81 1012.1
03:08 13.7 10.5 81 1012
03:18 13.6 10.6 82 1012
03:28 13.6 10.6 82 1011.9
03:38 13.6 10.6 82 1011.8
03:48 13.6 10.6 82 1011.8
03:58 13.6 10.6 82 1011.7
04:09 13.7 10.7 82 1011.6
04:18 13.7 10.9 83 1011.6
04:28 13.8 11 83 1011.5
04:38 13.8 11 83 1011.5
04:49 13.8 11 83 1011.4
04:59 13.7 10.9 83 1011.4
05:08 13.6 11 84 1011.3
05:19 13.6 11 84 1011.2
05:29 13.5 10.9 84 1011.2
05:39 13.3 10.7 84 1011.3
05:49 13.3 10.7 84 1011.3
05:59 13.2 10.6 84 1011.3
06:09 13.1 10.5 84 1011.3
06:19 13.1 10.5 84 1011.4
06:30 13 10.4 84 1011.4
06:39 12.9 10.4 85 1011.6
06:48 12.9 10.4 85 1011.7
06:59 12.9 10.4 85 1011.7
07:10 12.8 10.3 85 1011.7
07:20 12.8 10.3 85 1011.7
07:29 12.8 10.3 85 1011.7
07:40 12.8 10.3 85 1011.7
07:50 12.8 10.3 85 1011.7
08:00 12.9 10.6 86 1011.6
08:10 12.9 10.6 86 1011.6
08:20 13 10.7 86 1011.8
08:30 13.2 10.9 86 1011.9
08:40 13.3 11 86 1011.9
08:51 13.5 11.2 86 1011.9
09:00 13.7 11.4 86 1011.8
09:10 13.8 11.5 86 1011.8
09:20 14.1 11.8 86 1011.8
09:31 14.3 12 86 1011.7
09:41 14.5 12.2 86 1011.7
09:50 14.8 12.5 86 1011.7
10:01 15 12.7 86 1011.7
10:11 15.3 13 86 1011.8
10:20 15.5 13.2 86 1011.9
10:31 15.8 13.5 86 1012
10:41 16.1 13.6 85 1012
10:51 16.4 13.9 85 1012.1
11:01 16.8 14.3 85 1012.2
11:12 17.1 14.6 85 1012.2
11:21 17.4 14.7 84 1012.2
11:31 17.6 14.9 84 1012.2
11:41 17.8 15.1 84 1012.1
11:52 18.2 15.5 84 1012.2
12:02 18.5 15.6 83 1012.1
12:11 18.5 15.6 83 1012.1
12:22 18.6 15.7 83 1012.1
12:32 18.7 15.8 83 1012.1
12:42 18.7 15.6 82 1012
12:51 18.6 15.5 82 1012
13:02 18.5 15.4 82 1012
13:11 18.4 15.3 82 1012
13:22 18.6 15.3 81 1012
13:33 18.7 15.4 81 1012
13:39 18.7 15.4 81 1012
13:52 18.9 15.6 81 1011.9
14:02 19.3 16 81 1011.7
14:13 19.6 16.3 81 1011.6
14:23 19.9 16.3 80 1011.6
14:32 20.3 16.7 80 1011.6
14:43 20.4 16.8 80 1011.5
14:53 20.6 17 80 1011.5
15:03 20.6 17 80 1011.6
15:13 20.5 16.9 80 1011.5
15:23 20.5 16.7 79 1011.5
15:33 20.4 16.6 79 1011.6
15:43 20.2 16.4 79 1011.6
15:54 20.2 16.4 79 1011.6
16:03 20.2 16.4 79 1011.6
16:13 20.1 16.3 79 1011.7
16:23 20.1 16.3 79 1011.7
16:34 20 16.2 79 1011.8
16:43 20 16.1 78 1011.9
16:53 19.9 16 78 1011.8
17:04 19.9 16 78 1011.8
17:14 19.8 15.9 78 1011.8
17:24 19.8 15.9 78 1011.9
17:33 19.8 15.9 78 1011.9
17:44 20 16.1 78 1011.8
17:54 19.9 16 78 1011.9
18:04 19.8 15.9 78 1011.8
18:14 19.6 15.7 78 1011.8
18:24 19.3 15.2 77 1011.8
18:34 19 14.9 77 1011.8
18:44 18.7 14.6 77 1011.9
18:55 18.4 14.3 77 1012.1
19:04 18.2 14.1 77 1012.2
19:14 17.9 13.8 77 1012.3
19:25 17.6 13.5 77 1012.3
19:35 17.3 13.2 77 1012.4
19:43 17 12.9 77 1012.5
19:54 16.8 12.7 77 1012.5
20:05 16.5 12.5 77 1012.6
20:14 16.3 12.1 76 1012.6
20:25 16 11.8 76 1012.7
20:35 15.8 11.6 76 1012.7
20:45 15.5 11.3 76 1012.8
20:55 15.3 11.1 76 1013
21:05 15.1 10.9 76 1013
21:16 14.8 10.6 76 1013.1
21:25 14.6 10.4 76 1013.2
21:35 14.4 10.2 76 1013.3
21:46 14.3 10.1 76 1013.3
21:56 14.1 9.9 76 1013.3
22:05 14 9.8 76 1013.3
22:15 13.8 9.6 76 1013.4
22:26 13.7 9.6 76 1013.5
22:36 13.7 9.7 77 1013.5
22:45 13.6 9.6 77 1013.6
22:56 13.6 9.6 77 1013.6
23:06 13.7 9.7 77 1013.7
23:15 13.8 9.8 77 1013.8
23:26 13.8 9.8 77 1013.8
23:36 13.9 9.9 77 1013.8
23:46 13.9 9.9 77 1014
23:56 13.8 9.8 77 1014.1

ESTADÍSTICA DEL DÍA

2021-09-19
TEMPERATURA
NORMAL
16.0
ALTO
20.6
14:53
BAJA
12.8
07:10
PRESIÓN
NORMAL
1012.1
ALTO
1014.1
23:56
BAJA
1011.2
05:19
PUNTO DE ROCÍO
NORMAL
12.7
ALTO
17.0
14:53
BAJA
9.6
22:15
HUMEDAD
NORMAL
81
ALTO
86
08:00
BAJA
76
20:14
TEMPERATURA (°C)
BAJA
12.8
ALTO
20.6
NORMAL
16.0
PRESIÓN (hpa)
BAJA
1011.2
ALTO
1014.1
NORMAL
1012.1
DEVICE